Terminal Aerodrome Forecast
Issued by NWS Sterling, VA

Current Version | Previous Version | Graphics & Text | Print | Product List | Glossary On
Versions: 1 2 3 4 5 6 7 8 9 10 11 12 13 14 15 16 17 18 19 20 21 22 23 24 25
713
FTUS41 KLWX 062321
TAFDCA
TAF
KDCA 062321Z 0700/0724 03012KT 4SM -RA OVC008
     FM070500 35006KT 2SM -RA OVC003
     FM071400 32009KT P6SM BKN015
     FM071600 32009KT P6SM SCT030
     FM071800 32009KT P6SM FEW150=

USA.gov is the U.S. government's official web portal to all federal, state and local government web resources and services.